Time;durP1;ratioP1;P1;durP2;ratioP2;P2;SDS_P1;SDS_P2;PMS_P1;PMS_P2;Temp;Humidity;BMP_temperature;BMP_pressure;BME280_temperature;BME280_humidity;BME280_pressure;Samples;Min_cycle;Max_cycle;Signal;HPM_P1;HPM_P2
2022/02/26 00:00:20;;;;;;;957.83;902.03;;;;;;;6.40;65.72;101893.91;670595;29;22372;-73
2022/02/26 00:00:43;;;;;;;959.53;903.63;;;;;;;6.39;65.77;101892.19;670924;29;23315;-70
2022/02/26 00:01:04;;;;;;;946.65;891.63;;;;;;;6.39;65.56;101902.06;669502;29;69281;-73
2022/02/26 00:01:25;;;;;;;949.85;894.67;;;;;;;6.39;65.84;101894.84;648705;29;16961;-73
2022/02/26 00:01:46;;;;;;;976.20;919.25;;;;;;;6.37;65.67;101896.81;673271;29;21542;-70
2022/02/26 00:02:08;;;;;;;959.30;903.45;;;;;;;6.37;65.91;101901.34;672891;29;21502;-71
2022/02/26 00:02:29;;;;;;;952.72;897.33;;;;;;;6.35;65.94;101893.41;672551;29;46201;-71
2022/02/26 00:02:51;;;;;;;966.03;909.75;;;;;;;6.36;65.64;101891.56;673403;29;22375;-73
2022/02/26 00:03:12;;;;;;;969.38;912.88;;;;;;;6.36;65.89;101900.47;672558;29;44325;-73
2022/02/26 00:03:34;;;;;;;972.67;915.95;;;;;;;6.35;65.82;101895.22;672690;29;44393;-73
2022/02/26 00:03:55;;;;;;;956.92;901.20;;;;;;;6.36;66.01;101897.78;672402;29;44384;-73
2022/02/26 00:04:17;;;;;;;980.50;923.22;;;;;;;6.38;65.81;101892.31;673324;29;22388;-73
2022/02/26 00:04:38;;;;;;;1003.65;944.85;;;;;;;6.39;65.82;101900.22;673457;29;21567;-73
2022/02/26 00:05:00;;;;;;;995.88;937.63;;;;;;;6.39;65.83;101900.22;673479;29;23273;-73
2022/02/26 00:05:21;;;;;;;983.90;926.40;;;;;;;6.38;65.76;101894.97;672792;29;46468;-73
2022/02/26 00:05:44;;;;;;;995.25;937.05;;;;;;;6.37;65.74;101902.19;672861;29;44379;-73
2022/02/26 00:06:07;;;;;;;995.42;937.17;;;;;;;6.38;65.75;101897.66;668264;29;46282;-71
2022/02/26 00:06:28;;;;;;;964.70;908.40;;;;;;;6.40;65.74;101901.09;667070;29;92294;-73
2022/02/26 00:06:49;;;;;;;954.75;899.08;;;;;;;6.38;65.56;101900.34;669461;29;46293;-73
2022/02/26 00:07:10;;;;;;;940.80;886.08;;;;;;;6.35;65.72;101893.41;670498;29;21192;-73
2022/02/26 00:07:32;;;;;;;939.38;884.78;;;;;;;6.37;65.69;101899.50;670766;29;22417;-73
2022/02/26 00:07:53;;;;;;;948.85;893.60;;;;;;;6.36;65.69;101903.16;670267;29;46386;-73
2022/02/26 00:08:15;;;;;;;944.85;889.95;;;;;;;6.38;65.66;101900.34;673713;29;23729;-72
2022/02/26 00:08:38;;;;;;;949.78;894.63;;;;;;;6.38;65.65;101906.59;673498;29;21552;-73
2022/02/26 00:08:59;;;;;;;961.53;905.53;;;;;;;6.38;65.52;101906.59;670210;29;92250;-71
2022/02/26 00:09:20;;;;;;;951.72;896.42;;;;;;;6.40;65.51;101906.47;673710;29;21475;-73
2022/02/26 00:09:42;;;;;;;971.30;914.67;;;;;;;6.38;65.37;101894.97;673746;29;22450;-72
2022/02/26 00:10:04;;;;;;;965.50;909.15;;;;;;;6.39;65.33;101910.13;673451;29;21483;-73
2022/02/26 00:10:26;;;;;;;947.58;892.53;;;;;;;6.38;65.35;101906.59;672053;29;69366;-72
2022/02/26 00:10:48;;;;;;;948.17;893.03;;;;;;;6.39;65.42;101905.59;672855;29;46332;-72
2022/02/26 00:11:09;;;;;;;974.67;917.80;;;;;;;6.39;65.27;101908.28;673419;29;21541;-73
2022/02/26 00:11:31;;;;;;;955.03;899.47;;;;;;;6.37;65.41;101910.25;672877;29;21541;-73
2022/02/26 00:11:52;;;;;;;961.53;905.53;;;;;;;6.38;65.36;101909.28;672578;29;46289;-73
2022/02/26 00:12:13;;;;;;;979.10;921.90;;;;;;;6.38;65.38;101906.59;673313;29;20873;-73
2022/02/26 00:12:35;;;;;;;976.00;919.00;;;;;;;6.38;65.44;101908.41;673454;29;22284;-73
2022/02/26 00:12:57;;;;;;;970.30;913.75;;;;;;;6.39;65.56;101910.97;671200;29;89487;-72
2022/02/26 00:13:18;;;;;;;968.28;911.83;;;;;;;6.38;65.30;101914.63;673491;29;22381;-73
2022/02/26 00:13:39;;;;;;;980.08;922.88;;;;;;;6.36;65.36;101913.88;673757;29;21368;-72
2022/02/26 00:14:02;;;;;;;961.80;905.78;;;;;;;6.36;65.38;101916.56;673421;29;23272;-73
2022/02/26 00:14:23;;;;;;;953.42;897.85;;;;;;;6.38;65.37;101917.31;672551;29;46308;-73
2022/02/26 00:14:44;;;;;;;943.70;888.90;;;;;;;6.37;65.38;101920.13;673471;29;23502;-74
2022/02/26 00:15:06;;;;;;;971.45;914.83;;;;;;;6.36;65.52;101913.88;673261;29;23491;-72
2022/02/26 00:15:28;;;;;;;965.33;909.05;;;;;;;6.38;65.35;101916.44;669770;29;47538;-73
2022/02/26 00:15:49;;;;;;;958.13;902.38;;;;;;;6.40;65.56;101907.31;668839;29;69303;-72
2022/02/26 00:16:11;;;;;;;971.80;915.13;;;;;;;6.40;65.21;101915.38;669969;29;22218;-71
2022/02/26 00:16:33;;;;;;;962.75;906.60;;;;;;;6.37;65.13;101912.91;667064;29;23501;-72
2022/02/26 00:16:55;;;;;;;941.67;886.90;;;;;;;6.38;65.17;101921.81;667009;29;46292;-73
2022/02/26 00:17:16;;;;;;;948.40;893.28;;;;;;;6.39;65.30;101923.53;668041;29;45370;-74
2022/02/26 00:17:37;;;;;;;940.80;886.25;;;;;;;6.43;65.34;101917.81;670477;29;22264;-73
2022/02/26 00:18:00;;;;;;;947.95;892.83;;;;;;;6.45;65.22;101918.53;669837;29;30057;-72
2022/02/26 00:18:21;;;;;;;943.35;888.60;;;;;;;6.45;65.13;101917.69;671066;29;44331;-73
2022/02/26 00:18:42;;;;;;;957.90;902.22;;;;;;;6.43;64.95;101923.19;673680;29;22363;-72
2022/02/26 00:19:03;;;;;;;978.93;921.90;;;;;;;6.42;64.90;101924.13;673490;29;22421;-73
2022/02/26 00:19:24;;;;;;;986.23;928.73;;;;;;;6.41;64.97;101925.13;673642;29;22425;-72
2022/02/26 00:19:46;;;;;;;983.83;926.47;;;;;;;6.43;65.20;101922.34;672469;29;47119;-73
2022/02/26 00:20:08;;;;;;;976.55;919.65;;;;;;;6.42;64.83;101924.13;672460;29;46444;-72
2022/02/26 00:20:29;;;;;;;991.75;933.83;;;;;;;6.42;64.87;101925.97;672744;29;46600;-73
2022/02/26 00:20:50;;;;;;;991.90;933.97;;;;;;;6.40;65.02;101918.03;673416;29;21594;-72
2022/02/26 00:21:12;;;;;;;983.08;925.70;;;;;;;6.41;65.05;101922.44;672688;29;44364;-71
2022/02/26 00:21:34;;;;;;;984.90;927.33;;;;;;;6.41;64.98;101932.31;672045;29;45109;-70
2022/02/26 00:21:55;;;;;;;1003.90;945.08;;;;;;;6.41;64.92;101922.44;673369;29;21464;-73
2022/02/26 00:22:16;;;;;;;994.70;936.55;;;;;;;6.39;64.88;101926.22;673506;29;22350;-70
2022/02/26 00:22:39;;;;;;;981.17;923.92;;;;;;;6.41;65.12;101916.22;673594;29;21530;-72
2022/02/26 00:23:00;;;;;;;974.08;917.33;;;;;;;6.45;65.08;101915.00;671647;29;70153;-73
2022/02/26 00:23:22;;;;;;;987.10;929.38;;;;;;;6.46;64.95;101928.31;674188;29;1573;-73
2022/02/26 00:23:45;;;;;;;986.17;928.58;;;;;;;6.47;65.00;101931.81;673548;29;23711;-71
2022/02/26 00:24:07;;;;;;;963.90;907.83;;;;;;;6.47;64.83;101929.16;672788;29;45254;-71
2022/02/26 00:24:29;;;;;;;946.10;891.08;;;;;;;6.44;64.76;101924.91;672147;29;69159;-73
2022/02/26 00:24:50;;;;;;;884.55;833.35;;;;;;;6.43;64.77;101925.00;672543;29;46329;-73
2022/02/26 00:25:12;;;;;;;851.75;802.53;;;;;;;6.41;64.58;101932.31;673473;29;21288;-73
2022/02/26 00:25:34;;;;;;;905.42;852.90;;;;;;;6.40;64.88;101930.63;673307;29;21553;-73
2022/02/26 00:25:55;;;;;;;944.50;889.47;;;;;;;6.42;64.96;101928.66;672515;29;46671;-73
2022/02/26 00:26:19;;;;;;;925.75;871.95;;;;;;;6.42;64.37;101934.03;673392;29;22459;-72
2022/02/26 00:26:40;;;;;;;947.83;892.73;;;;;;;6.43;64.74;101933.06;669247;29;135052;-73
2022/02/26 00:27:03;;;;;;;965.10;908.90;;;;;;;6.41;64.62;101935.88;672728;29;46617;-73
2022/02/26 00:27:24;;;;;;;954.15;898.60;;;;;;;6.40;64.78;101938.66;669999;29;44388;-72
2022/02/26 00:27:45;;;;;;;935.70;881.25;;;;;;;6.41;64.80;101938.56;671249;29;22387;-73
2022/02/26 00:28:06;;;;;;;942.83;887.88;;;;;;;6.41;64.72;101935.00;671097;29;23435;-70
2022/02/26 00:28:27;;;;;;;931.92;877.67;;;;;;;6.40;64.73;101936.84;671178;29;21530;-73
2022/02/26 00:28:49;;;;;;;927.67;873.72;;;;;;;6.38;64.65;101943.28;671036;29;23486;-72
2022/02/26 00:29:10;;;;;;;939.25;884.72;;;;;;;6.37;64.67;101934.38;670646;29;45308;-72
2022/02/26 00:29:34;;;;;;;943.72;888.80;;;;;;;6.35;64.68;101933.66;673775;29;23705;-71
2022/02/26 00:29:57;;;;;;;986.00;928.30;;;;;;;6.35;64.68;101938.16;670927;29;112851;-71
2022/02/26 00:30:18;;;;;;;985.47;927.78;;;;;;;6.34;64.73;101936.47;672162;29;69463;-71
2022/02/26 00:30:39;;;;;;;980.13;922.88;;;;;;;6.31;64.91;101932.19;674137;29;22520;-71
2022/02/26 00:31:00;;;;;;;992.42;934.33;;;;;;;6.31;64.87;101938.41;673924;29;23816;-72
2022/02/26 00:31:23;;;;;;;1008.83;949.70;;;;;;;6.31;65.00;101937.56;672510;29;46382;-71
2022/02/26 00:31:44;;;;;;;998.13;939.67;;;;;;;6.33;65.01;101946.31;672888;29;44144;-72
2022/02/26 00:32:06;;;;;;;986.95;929.22;;;;;;;6.32;64.87;101941.97;673837;29;21528;-71
2022/02/26 00:32:28;;;;;;;991.17;933.22;;;;;;;6.31;64.65;101949.13;673098;29;44264;-71
2022/02/26 00:32:49;;;;;;;1006.65;947.58;;;;;;;6.29;64.80;101951.09;673240;29;46688;-71
2022/02/26 00:33:12;;;;;;;997.25;938.80;;;;;;;6.30;65.03;101942.06;673953;29;22306;-72
2022/02/26 00:33:34;;;;;;;987.45;929.72;;;;;;;6.31;64.90;101950.97;672137;29;67500;-71
2022/02/26 00:33:56;;;;;;;991.22;933.28;;;;;;;6.30;64.88;101947.44;672265;29;68156;-71
2022/02/26 00:34:17;;;;;;;1004.60;945.75;;;;;;;6.30;64.80;101949.25;673892;29;22287;-72
2022/02/26 00:34:38;;;;;;;996.97;938.67;;;;;;;6.29;64.82;101947.56;674199;29;22241;-72
2022/02/26 00:34:59;;;;;;;992.75;934.72;;;;;;;6.28;64.92;101948.53;673657;29;22384;-71
2022/02/26 00:35:21;;;;;;;969.67;913.15;;;;;;;6.28;65.08;101940.47;673966;29;22397;-72
2022/02/26 00:35:43;;;;;;;976.10;919.13;;;;;;;6.27;64.93;101953.03;673167;29;45246;-72
2022/02/26 00:36:05;;;;;;;992.97;934.80;;;;;;;6.26;65.22;101934.38;672618;29;46111;-71
2022/02/26 00:36:26;;;;;;;954.88;899.20;;;;;;;6.27;65.25;101946.81;647833;29;44144;-72
2022/02/26 00:36:48;;;;;;;953.08;897.60;;;;;;;6.28;65.07;101946.69;673300;29;22403;-71
2022/02/26 00:37:09;;;;;;;985.95;928.40;;;;;;;6.27;65.00;101947.69;672006;29;45218;-71
2022/02/26 00:37:30;;;;;;;980.90;923.67;;;;;;;6.28;65.06;101952.06;672630;29;23337;-72
2022/02/26 00:37:51;;;;;;;974.92;918.05;;;;;;;6.27;65.12;101955.72;672213;29;23529;-71
2022/02/26 00:38:13;;;;;;;961.45;905.45;;;;;;;6.26;64.95;101951.31;672857;29;22385;-72
2022/02/26 00:38:35;;;;;;;951.35;895.90;;;;;;;6.28;65.07;101957.41;671797;29;67478;-71
2022/02/26 00:38:57;;;;;;;942.67;887.72;;;;;;;6.27;64.93;101957.53;673476;29;23463;-72
2022/02/26 00:39:19;;;;;;;954.28;898.67;;;;;;;6.26;64.90;101953.16;673191;29;46393;-72
2022/02/26 00:39:40;;;;;;;972.85;916.10;;;;;;;6.27;65.03;101946.81;673258;29;44320;-72
2022/02/26 00:40:02;;;;;;;974.47;917.58;;;;;;;6.29;64.98;101961.81;673762;29;22404;-70
2022/02/26 00:40:24;;;;;;;942.13;887.30;;;;;;;6.29;64.94;101951.09;672981;29;44479;-71
2022/02/26 00:40:45;;;;;;;904.13;851.70;;;;;;;6.29;64.96;101950.25;673145;29;43987;-71
2022/02/26 00:41:06;;;;;;;944.92;889.95;;;;;;;6.30;64.79;101950.13;673962;29;22388;-71
2022/02/26 00:41:28;;;;;;;934.60;880.20;;;;;;;6.30;65.04;101950.13;673214;29;23541;-71
2022/02/26 00:41:50;;;;;;;876.67;825.90;;;;;;;6.29;65.18;101961.81;673036;29;46256;-72
2022/02/26 00:42:11;;;;;;;857.90;808.30;;;;;;;6.32;65.11;101953.53;672808;29;46325;-71
2022/02/26 00:42:32;;;;;;;849.03;800.00;;;;;;;6.32;65.04;101964.25;673774;29;23766;-72
2022/02/26 00:42:53;;;;;;;916.30;863.10;;;;;;;6.34;64.87;101963.31;673681;29;22386;-72
2022/02/26 00:43:15;;;;;;;937.47;883.03;;;;;;;6.36;64.74;101955.97;673780;29;23831;-71
2022/02/26 00:43:36;;;;;;;917.13;863.95;;;;;;;6.32;64.82;101964.25;673207;29;45031;-71
2022/02/26 00:43:57;;;;;;;930.50;876.38;;;;;;;6.31;64.68;101965.22;673747;29;23581;-71
2022/02/26 00:44:18;;;;;;;938.00;883.40;;;;;;;6.29;64.86;101961.81;673977;29;22469;-72
2022/02/26 00:44:40;;;;;;;876.05;825.42;;;;;;;6.28;65.07;101962.78;673888;29;21534;-71
2022/02/26 00:45:01;;;;;;;858.22;808.70;;;;;;;6.28;65.03;101967.31;673016;29;46310;-71
2022/02/26 00:45:23;;;;;;;839.03;790.67;;;;;;;6.27;64.82;101961.09;674499;29;849;-71
2022/02/26 00:45:44;;;;;;;912.67;859.70;;;;;;;6.27;64.95;101962.91;670191;29;43760;-71
2022/02/26 00:46:07;;;;;;;915.17;861.97;;;;;;;6.26;65.02;101959.38;670417;29;22360;-71
2022/02/26 00:46:29;;;;;;;920.83;867.22;;;;;;;6.25;65.03;101959.50;668752;29;67460;-72
2022/02/26 00:46:50;;;;;;;942.35;887.55;;;;;;;6.25;64.90;101959.50;670131;29;45299;-72
2022/02/26 00:47:11;;;;;;;951.80;896.35;;;;;;;6.22;64.94;101963.28;670732;29;23537;-71
2022/02/26 00:47:33;;;;;;;914.28;861.22;;;;;;;6.24;65.11;101964.00;671265;29;46382;-71
2022/02/26 00:47:55;;;;;;;891.55;839.95;;;;;;;6.24;65.05;101964.00;673819;29;22380;-74
2022/02/26 00:48:17;;;;;;;888.63;837.20;;;;;;;6.26;65.15;101958.53;673108;29;46265;-72
2022/02/26 00:49:58;;;;;;;920.00;866.60;;;;;;;6.27;64.94;101966.47;670031;29;137520;-72
2022/02/26 00:50:20;;;;;;;927.22;873.42;;;;;;;6.28;65.08;101968.16;673293;29;47912;-71
2022/02/26 00:50:41;;;;;;;935.63;881.28;;;;;;;6.28;65.03;101970.81;673794;29;22392;-72
2022/02/26 00:51:02;;;;;;;965.65;909.38;;;;;;;6.27;64.97;101969.13;674028;29;22426;-72
2022/02/26 00:51:24;;;;;;;963.03;906.92;;;;;;;6.27;64.86;101965.59;673365;29;21525;-71
2022/02/26 00:51:45;;;;;;;952.78;897.42;;;;;;;6.27;64.69;101971.81;673085;29;46786;-73
2022/02/26 00:52:07;;;;;;;957.53;901.75;;;;;;;6.28;64.79;101970.81;673897;29;22431;-72
2022/02/26 00:52:30;;;;;;;973.33;916.53;;;;;;;6.30;65.02;101968.91;673135;29;44090;-72
2022/02/26 00:52:54;;;;;;;975.05;918.17;;;;;;;6.32;64.79;101974.16;672086;29;68232;-72
2022/02/26 00:53:15;;;;;;;964.75;908.55;;;;;;;6.32;64.70;101974.16;671472;29;92268;-72
2022/02/26 00:53:37;;;;;;;953.80;898.33;;;;;;;6.32;64.86;101972.31;673966;29;21505;-71
2022/02/26 00:53:59;;;;;;;941.78;887.00;;;;;;;6.32;64.55;101974.16;673878;29;23329;-71
2022/02/26 00:54:20;;;;;;;925.90;872.17;;;;;;;6.31;64.86;101970.59;672532;29;68129;-70
2022/02/26 00:54:42;;;;;;;937.85;883.40;;;;;;;6.30;64.76;101971.59;673988;29;24296;-72
2022/02/26 00:55:05;;;;;;;970.80;914.22;;;;;;;6.29;64.77;101982.44;672955;29;45248;-71
2022/02/26 00:55:26;;;;;;;978.35;921.35;;;;;;;6.31;64.83;101969.75;672587;29;70094;-72
2022/02/26 00:55:48;;;;;;;976.47;919.63;;;;;;;6.32;64.61;101976.84;674101;29;21434;-72
2022/02/26 00:56:09;;;;;;;987.95;930.15;;;;;;;6.32;64.89;101975.00;672638;29;46166;-71
2022/02/26 00:56:30;;;;;;;1001.72;943.03;;;;;;;6.33;64.76;101981.22;672891;29;22173;-71
2022/02/26 00:56:51;;;;;;;995.80;937.50;;;;;;;6.35;64.84;101981.09;673801;29;21506;-71
2022/02/26 00:57:14;;;;;;;985.47;927.95;;;;;;;6.33;64.63;101978.53;674060;29;22403;-71
2022/02/26 00:57:35;;;;;;;984.63;927.17;;;;;;;6.29;64.76;101983.28;672581;29;69112;-71
2022/02/26 00:57:57;;;;;;;993.47;935.40;;;;;;;6.29;64.63;101979.75;673922;29;21545;-71
2022/02/26 00:58:18;;;;;;;984.78;927.33;;;;;;;6.27;64.69;101970.94;673074;29;46172;-71
2022/02/26 00:58:40;;;;;;;986.13;928.53;;;;;;;6.26;64.63;101988.88;673785;29;22408;-72
2022/02/26 00:59:01;;;;;;;986.47;928.80;;;;;;;6.25;64.67;101976.47;673027;29;45027;-71
2022/02/26 00:59:22;;;;;;;984.38;926.95;;;;;;;6.24;64.82;101968.53;674108;29;22394;-71
2022/02/26 00:59:46;;;;;;;996.38;938.15;;;;;;;6.24;65.00;101979.25;672257;29;69390;-71
2022/02/26 01:00:10;;;;;;;979.13;922.08;;;;;;;6.21;64.84;101974.97;673156;29;46482;-71
2022/02/26 01:00:31;;;;;;;969.67;913.13;;;;;;;6.19;64.99;101974.25;671274;29;92288;-71
2022/02/26 01:00:52;;;;;;;985.25;927.60;;;;;;;6.20;65.10;101981.31;673907;29;23481;-71
2022/02/26 01:01:14;;;;;;;984.83;927.30;;;;;;;6.21;64.96;101982.19;673893;29;23408;-73
2022/02/26 01:01:37;;;;;;;985.05;927.53;;;;;;;6.21;64.99;101990.22;670290;29;112108;-72
2022/02/26 01:01:58;;;;;;;983.22;925.83;;;;;;;6.21;64.77;101990.22;673913;29;21526;-73
2022/02/26 01:02:20;;;;;;;973.45;916.70;;;;;;;6.22;64.94;101986.56;674032;29;22375;-72
2022/02/26 01:02:41;;;;;;;979.25;922.15;;;;;;;6.21;65.02;101991.06;673252;29;46280;-72
2022/02/26 01:03:02;;;;;;;980.45;923.25;;;;;;;6.29;64.99;101983.28;673852;29;22340;-71
2022/02/26 01:03:24;;;;;;;965.55;909.38;;;;;;;6.28;64.47;101978.03;673403;29;43892;-71
2022/02/26 01:03:45;;;;;;;968.33;911.95;;;;;;;6.26;64.63;101977.31;673710;29;21517;-72
2022/02/26 01:04:08;;;;;;;982.90;925.45;;;;;;;6.21;64.52;101988.41;673762;29;22394;-71
2022/02/26 01:04:29;;;;;;;976.25;919.22;;;;;;;6.18;64.62;101985.09;672262;29;69470;-71
2022/02/26 01:04:50;;;;;;;980.03;922.72;;;;;;;6.15;64.75;101979.97;673856;29;22548;-71
2022/02/26 01:05:12;;;;;;;984.25;926.70;;;;;;;6.15;64.95;101985.34;674020;29;20928;-72
2022/02/26 01:05:33;;;;;;;972.55;915.88;;;;;;;6.14;64.98;101989.81;673145;29;44458;-72
2022/02/26 01:05:55;;;;;;;970.92;914.30;;;;;;;6.13;65.20;101997.03;673955;29;22172;-72
2022/02/26 01:06:16;;;;;;;988.42;930.58;;;;;;;6.11;65.19;101988.25;673343;29;23466;-72
2022/02/26 01:06:37;;;;;;;976.95;919.90;;;;;;;6.11;65.23;101993.63;672499;29;43278;-72
2022/02/26 01:06:59;;;;;;;916.42;863.22;;;;;;;6.12;65.05;101987.25;670004;29;46325;-72
2022/02/26 01:07:20;;;;;;;934.20;879.95;;;;;;;6.12;65.08;101992.63;670353;29;45225;-71
2022/02/26 01:07:41;;;;;;;966.80;910.50;;;;;;;6.11;65.14;101990.94;671384;29;21258;-71
2022/02/26 01:08:04;;;;;;;962.80;906.67;;;;;;;6.11;65.13;101993.63;671050;29;22420;-71
2022/02/26 01:08:25;;;;;;;969.05;912.55;;;;;;;6.12;65.05;101989.09;670103;29;46294;-72
2022/02/26 01:08:46;;;;;;;983.50;926.08;;;;;;;6.13;65.20;101994.34;671738;29;21517;-72
2022/02/26 01:09:08;;;;;;;974.95;918.10;;;;;;;6.15;65.12;101998.75;673838;29;22395;-72
2022/02/26 01:09:30;;;;;;;986.00;928.38;;;;;;;6.13;65.04;101994.34;672270;29;65338;-71
2022/02/26 01:09:51;;;;;;;986.10;928.50;;;;;;;6.15;65.10;101996.06;673066;29;44348;-72
2022/02/26 01:10:13;;;;;;;970.05;913.47;;;;;;;6.13;64.93;101997.03;673817;29;22393;-71
2022/02/26 01:10:35;;;;;;;937.13;882.67;;;;;;;6.14;64.95;101997.88;673625;29;22346;-71
2022/02/26 01:10:56;;;;;;;961.67;905.63;;;;;;;6.13;65.02;101999.72;672025;29;69377;-71
2022/02/26 01:11:17;;;;;;;981.60;924.33;;;;;;;6.15;65.17;102006.78;672597;29;22203;-72
2022/02/26 01:11:38;;;;;;;952.05;896.65;;;;;;;6.15;65.00;102004.97;673900;29;17177;-71
2022/02/26 01:12:00;;;;;;;914.95;861.92;;;;;;;6.15;64.89;102001.44;673944;29;22434;-71
2022/02/26 01:12:22;;;;;;;942.38;887.67;;;;;;;6.15;65.06;102001.44;674065;29;22399;-71
2022/02/26 01:12:43;;;;;;;937.03;882.60;;;;;;;6.13;64.83;102006.91;673330;29;46244;-72
2022/02/26 01:13:09;;;;;;;961.67;905.63;;;;;;;6.16;65.21;102004.00;669511;29;63251;-71
2022/02/26 01:13:30;;;;;;;969.35;912.90;;;;;;;6.17;64.98;102002.16;671019;29;23498;-71
2022/02/26 01:13:52;;;;;;;958.60;902.80;;;;;;;6.16;64.90;102008.47;669610;29;46339;-71
2022/02/26 01:14:14;;;;;;;971.58;914.97;;;;;;;6.15;64.90;102004.13;671237;29;21355;-70
2022/02/26 01:14:36;;;;;;;969.70;913.15;;;;;;;6.16;64.86;102008.47;670407;29;45234;-71
2022/02/26 01:14:59;;;;;;;976.65;919.65;;;;;;;6.14;65.03;102008.59;670633;29;44353;-73
2022/02/26 01:15:21;;;;;;;986.88;929.25;;;;;;;6.12;64.83;102003.34;672438;29;67628;-71
2022/02/26 01:15:42;;;;;;;1003.80;945.00;;;;;;;6.11;65.05;102009.72;673061;29;46338;-71
2022/02/26 01:16:04;;;;;;;1010.05;950.78;;;;;;;6.11;64.97;102006.16;673128;29;21589;-73
2022/02/26 01:16:25;;;;;;;1000.15;941.50;;;;;;;6.10;65.12;102005.31;672162;29;44155;-71
2022/02/26 01:16:47;;;;;;;989.00;931.20;;;;;;;6.12;64.95;102003.34;674049;29;22408;-71
2022/02/26 01:17:11;;;;;;;991.25;933.25;;;;;;;6.10;65.17;101994.56;670983;29;69124;-73
2022/02/26 01:17:32;;;;;;;996.13;937.78;;;;;;;6.11;65.16;102011.50;672219;29;69813;-72
2022/02/26 01:17:54;;;;;;;990.50;932.60;;;;;;;6.12;65.00;102006.03;673835;29;22394;-72
2022/02/26 01:18:15;;;;;;;996.58;938.20;;;;;;;6.12;65.07;102007.88;672742;29;46271;-71
2022/02/26 01:18:36;;;;;;;1001.20;942.60;;;;;;;6.12;64.91;102011.41;673702;29;22415;-71
2022/02/26 01:18:57;;;;;;;1002.17;943.47;;;;;;;6.13;64.94;102012.28;673480;29;23816;-70
2022/02/26 01:19:20;;;;;;;1000.58;941.95;;;;;;;6.14;64.99;102016.66;674278;29;1751;-71
2022/02/26 01:19:41;;;;;;;1005.70;946.78;;;;;;;6.11;65.14;102008.84;673130;29;45166;-71
2022/02/26 01:20:03;;;;;;;1019.45;959.45;;;;;;;6.12;65.07;102010.56;673794;29;21539;-72
2022/02/26 01:20:24;;;;;;;1012.88;953.47;;;;;;;6.13;65.07;102004.22;672534;29;67377;-71
2022/02/26 01:20:47;;;;;;;1005.33;946.42;;;;;;;6.14;64.95;102005.91;673994;29;22351;-72
2022/02/26 01:21:08;;;;;;;1012.08;952.67;;;;;;;6.13;64.91;102009.59;672994;29;44413;-72
2022/02/26 01:21:29;;;;;;;993.25;935.13;;;;;;;6.13;65.05;102013.13;672445;29;44549;-71
2022/02/26 01:21:50;;;;;;;972.08;915.38;;;;;;;6.11;65.00;102012.41;673937;29;22364;-71
2022/02/26 01:22:13;;;;;;;978.30;921.22;;;;;;;6.12;65.18;102015.91;673850;29;22424;-74
2022/02/26 01:22:34;;;;;;;998.53;940.08;;;;;;;6.11;65.15;102015.06;672198;29;69404;-72
2022/02/26 01:22:55;;;;;;;1000.17;941.67;;;;;;;6.10;65.16;102013.34;673931;29;21518;-72
2022/02/26 01:23:16;;;;;;;1002.15;943.53;;;;;;;6.11;64.96;102015.06;673919;29;22390;-71
2022/02/26 01:23:37;;;;;;;1000.47;941.90;;;;;;;6.12;64.86;102015.91;673969;29;21337;-72
2022/02/26 01:24:00;;;;;;;999.15;940.65;;;;;;;6.11;65.03;102011.50;673768;29;21423;-72
2022/02/26 01:24:22;;;;;;;1013.00;953.63;;;;;;;6.12;64.96;102015.91;673189;29;47040;-72
2022/02/26 01:24:43;;;;;;;1013.30;954.00;;;;;;;6.11;64.89;102007.03;672256;29;69275;-72
2022/02/26 01:25:06;;;;;;;1004.17;945.38;;;;;;;6.11;65.20;102012.41;673794;29;23260;-71
2022/02/26 01:25:29;;;;;;;1004.55;945.67;;;;;;;6.10;65.02;102021.41;671914;29;70358;-71
2022/02/26 01:25:50;;;;;;;1003.20;944.42;;;;;;;6.11;65.04;102014.19;672971;29;46615;-71
2022/02/26 01:26:11;;;;;;;989.78;931.78;;;;;;;6.12;65.20;102015.91;672642;29;22210;-72
2022/02/26 01:26:32;;;;;;;957.53;901.63;;;;;;;6.11;65.09;102017.75;672868;29;21363;-72
2022/02/26 01:26:55;;;;;;;962.72;906.63;;;;;;;6.11;65.05;102016.88;672658;29;44359;-74
2022/02/26 01:27:16;;;;;;;992.30;934.30;;;;;;;6.10;64.95;102021.41;673700;29;46652;-72
2022/02/26 01:27:39;;;;;;;986.47;928.83;;;;;;;6.12;65.07;102014.09;673942;29;23529;-73
2022/02/26 01:28:02;;;;;;;963.95;907.65;;;;;;;6.12;65.10;102018.59;671310;29;90532;-73
2022/02/26 01:28:25;;;;;;;964.35;908.17;;;;;;;6.10;64.89;102013.34;670926;29;114794;-71
2022/02/26 01:28:47;;;;;;;1005.65;946.67;;;;;;;6.10;65.12;102010.66;672642;29;44373;-71
2022/02/26 01:29:08;;;;;;;1015.67;956.00;;;;;;;6.10;64.89;102020.56;670958;29;22069;-72
2022/02/26 01:29:32;;;;;;;1010.13;950.85;;;;;;;6.12;65.04;102019.44;668316;29;92109;-72
2022/02/26 01:29:54;;;;;;;1013.40;953.80;;;;;;;6.13;65.03;102013.13;670871;29;23556;-71
2022/02/26 01:30:15;;;;;;;1026.45;966.00;;;;;;;6.13;64.79;102017.66;670242;29;45365;-71
2022/02/26 01:30:36;;;;;;;1019.20;959.30;;;;;;;6.13;64.85;102014.97;670124;29;46224;-72
2022/02/26 01:30:57;;;;;;;1018.35;958.55;;;;;;;6.12;64.84;102018.59;671566;29;21531;-72
2022/02/26 01:31:19;;;;;;;1014.63;955.10;;;;;;;6.14;64.97;102019.34;672942;29;22404;-72
2022/02/26 01:31:40;;;;;;;1026.65;966.20;;;;;;;6.13;64.63;102013.13;672896;29;45246;-71
2022/02/26 01:32:02;;;;;;;1014.35;954.83;;;;;;;6.15;64.79;102015.69;673711;29;22221;-71
2022/02/26 01:32:23;;;;;;;1002.08;943.45;;;;;;;6.17;64.89;102019.09;671713;29;1976;-72
2022/02/26 01:32:46;;;;;;;985.72;928.20;;;;;;;6.17;64.84;102013.72;669477;29;45255;-73
2022/02/26 01:33:07;;;;;;;969.08;912.60;;;;;;;6.17;64.77;102020.94;670138;29;44396;-71
2022/02/26 01:33:28;;;;;;;958.22;902.50;;;;;;;6.19;64.74;102022.53;671245;29;21531;-71
2022/02/26 01:33:49;;;;;;;983.53;926.08;;;;;;;6.19;64.86;102025.22;671131;29;22387;-72
2022/02/26 01:34:11;;;;;;;1004.70;945.88;;;;;;;6.19;64.73;102024.34;671634;29;22342;-72
2022/02/26 01:34:33;;;;;;;1006.92;948.03;;;;;;;6.18;64.43;102017.28;673281;29;45174;-71
2022/02/26 01:34:54;;;;;;;1023.72;963.55;;;;;;;6.19;64.55;102018.97;672673;29;45185;-72
2022/02/26 01:35:15;;;;;;;1023.80;963.60;;;;;;;6.18;64.49;102020.81;673860;29;23387;-71
2022/02/26 01:35:37;;;;;;;1023.92;963.75;;;;;;;6.18;64.45;102020.81;673715;29;22404;-73
2022/02/26 01:35:59;;;;;;;1014.65;955.15;;;;;;;6.16;64.75;102020.09;672761;29;46308;-73
2022/02/26 01:36:20;;;;;;;1024.88;964.50;;;;;;;6.16;64.62;102022.78;672852;29;21530;-72
2022/02/26 01:36:42;;;;;;;1030.82;970.03;;;;;;;6.17;64.70;102020.94;673800;29;22392;-71
2022/02/26 01:37:04;;;;;;;1015.20;955.60;;;;;;;6.17;64.53;102023.63;671683;29;69109;-71
2022/02/26 01:37:25;;;;;;;1010.97;951.67;;;;;;;6.17;64.66;102018.25;672622;29;44297;-71
2022/02/26 01:37:47;;;;;;;1019.42;959.53;;;;;;;6.15;64.63;102018.38;673219;29;22219;-71
2022/02/26 01:38:09;;;;;;;1009.75;950.50;;;;;;;6.18;64.72;102030.69;672709;29;46214;-71
2022/02/26 01:38:30;;;;;;;983.35;926.05;;;;;;;6.18;64.80;102025.34;674013;29;21535;-71
2022/02/26 01:38:51;;;;;;;968.72;912.33;;;;;;;6.19;64.69;102018.97;673165;29;44401;-71
2022/02/26 01:39:13;;;;;;;956.70;901.00;;;;;;;6.18;64.60;102030.69;673765;29;23356;-72
2022/02/26 01:39:36;;;;;;;965.30;908.97;;;;;;;6.17;64.60;102019.09;673058;29;46321;-73